Resistencia, Argentina

11:03 PM ART on September 01, 2014 (GMT -0300)
Resistencia | Change Station
CLOSE
Current Station
Airport
Location: Resistencia,
Elevation: 171 ft
Nearby Weather Stations

Elev 171 ft 27.45 °S, 59.06 °W | Updated 1 hour ago

Clear
Clear
75 °F
Feels Like 75 °F
N
9
Wind Variable Wind from East

Today
High -- | Low -- °F
--% Chance of Precip.
Yesterday
High -- | Low -- °F
Precip. -- in
7:09 AM 6:43 PM
Waxing Crescent, 46% visible
Pressure 29.65 in
Visibility -9999.0 miles
Clouds
Dew Point 68 °F
Humidity 78%
Rainfall 0.00 in
Snow Depth Not available.
UV Not available.
Pollen Not available.
Air Quality Not available.
Flu Activity Not available.
METAR SARE 020100Z 09008KT CAVOK 24/20 Q1004

More Conditions Fewer Conditions

Pressure 29.65 in
Visibility -9999.0 miles
Clouds
Dew Point 68 °F
Humidity 78%
Rainfall 0.00 in
Snow Depth Not available.
UV Not available.
Pollen Not available.
Air Quality Not available.
Flu Activity Not available.
METAR SARE 020100Z 09008KT CAVOK 24/20 Q1004

More Conditions Fewer Conditions

10-Day Weather Forecast

Almanac

Astronomy

Sep. 01, 2014 Rise Set
Actual Time 7:09 AM ART 6:43 PM ART
Civil Twilight 6:46 AM ART 7:06 PM ART
Nautical Twilight 6:19 AM ART 7:33 PM ART
Astronomical Twilight 5:52 AM ART 8:00 PM ART
Moon 11:26 AM ART (9/1) 12:11 AM ART (9/1)
Length of Visible Light 12h 20m
Length of Day
11h 33m
Tomorrow will be 1m 33s longer.
Waxing Crescent, 46% of the Moon is Illuminated
Today
Waxing Crescent
Sep 2
First Quarter
Sep 8
Full
Sep 15
Last Quarter
Sep 24
New

Today's Extremes

Country Highs Country Lows

Community

WunderPhotos

Upload Photos

1,749,493 photos uploaded!

Nearby

Snow Depth

Not available.

Earthquake Activity

City Distance Mag. Time & Date
No recent earthquake activity has been reported nearby.
Minimum magnitude displayed is 2.5.

Coastal Water Temperatures

Place Temperature
No Stations Reporting

Nearby Weather Stations